createdAt,value
2019-01-22T00:00:35.079Z,26.80
2019-01-22T00:03:04.357Z,28.07
2019-01-22T00:05:33.642Z,29.25
2019-01-22T00:08:03.113Z,28.60
2019-01-22T00:10:32.643Z,25.02
2019-01-22T00:13:01.947Z,27.10
2019-01-22T00:15:31.239Z,26.35
2019-01-22T00:18:00.531Z,28.23
2019-01-22T00:20:29.812Z,27.52
2019-01-22T00:23:02.909Z,26.60
2019-01-22T00:25:30.339Z,26.62
2019-01-22T00:28:00.365Z,26.52
2019-01-22T00:30:29.669Z,25.57
2019-01-22T00:32:59.033Z,26.33
2019-01-22T00:35:28.622Z,27.02
2019-01-22T00:37:57.915Z,26.50
2019-01-22T00:40:27.477Z,26.97
2019-01-22T00:42:57.041Z,26.57
2019-01-22T00:45:26.646Z,25.72
2019-01-22T00:47:55.969Z,24.60
2019-01-22T00:50:25.655Z,26.60
2019-01-22T00:52:54.946Z,27.13
2019-01-22T00:55:24.243Z,27.60
2019-01-22T00:57:53.866Z,27.35
2019-01-22T01:00:31.650Z,26.37
2019-01-22T01:03:01.104Z,25.90
2019-01-22T01:05:31.010Z,25.68
2019-01-22T01:08:00.799Z,25.65
2019-01-22T01:10:30.166Z,25.60
2019-01-22T01:13:00.521Z,24.90
2019-01-22T01:15:30.229Z,25.23
2019-01-22T01:17:59.885Z,24.87
2019-01-22T01:20:29.181Z,25.82
2019-01-22T01:22:58.461Z,23.98
2019-01-22T01:25:28.057Z,24.27
2019-01-22T01:27:57.337Z,24.82
2019-01-22T01:30:26.712Z,25.02
2019-01-22T01:32:56.994Z,23.87
2019-01-22T01:35:26.325Z,24.47
2019-01-22T01:37:55.653Z,24.95
2019-01-22T01:40:25.137Z,24.52
2019-01-22T01:42:55.422Z,25.75
2019-01-22T01:45:25.322Z,24.18
2019-01-22T01:47:54.626Z,26.37
2019-01-22T01:50:23.913Z,25.40
2019-01-22T01:52:53.530Z,24.02
2019-01-22T01:55:22.811Z,23.90
2019-01-22T01:57:52.448Z,25.82
2019-01-22T02:00:22.174Z,24.32
2019-01-22T02:02:51.461Z,25.30
2019-01-22T02:05:21.071Z,24.30
2019-01-22T02:07:50.363Z,24.87
2019-01-22T02:10:21.486Z,24.82
2019-01-22T02:12:54.370Z,26.55
2019-01-22T02:15:32.421Z,25.52
2019-01-22T02:18:31.943Z,24.77
2019-01-22T02:21:10.218Z,22.67
2019-01-22T02:23:45.261Z,26.33
2019-01-22T02:26:23.253Z,25.00
2019-01-22T02:29:01.604Z,25.12
2019-01-22T02:31:45.753Z,25.70
2019-01-22T02:34:23.804Z,24.90
2019-01-22T02:37:05.515Z,22.37
2019-01-22T02:39:49.736Z,24.30
2019-01-22T02:42:22.433Z,26.12
2019-01-22T02:45:19.086Z,22.30
2019-01-22T02:47:57.205Z,24.30
2019-01-22T02:50:38.721Z,23.75
2019-01-22T02:53:13.835Z,24.50
2019-01-22T02:55:48.838Z,23.27
2019-01-22T02:58:41.090Z,24.65
2019-01-22T03:01:21.693Z,24.95
2019-01-22T03:04:00.168Z,24.18
2019-01-22T03:06:38.717Z,24.85
2019-01-22T03:09:13.743Z,24.45
2019-01-22T03:11:58.100Z,25.45
2019-01-22T03:14:36.501Z,25.45
2019-01-22T03:17:36.155Z,24.32
2019-01-22T03:20:25.982Z,24.23
2019-01-22T03:23:19.132Z,24.45
2019-01-22T03:26:00.290Z,24.10
2019-01-22T03:28:45.101Z,23.07
2019-01-22T03:31:23.556Z,25.80
2019-01-22T03:34:11.026Z,23.57
2019-01-22T03:36:58.429Z,23.77
2019-01-22T03:39:39.854Z,24.15
2019-01-22T03:42:24.200Z,24.35
2019-01-22T03:45:19.549Z,24.63
2019-01-22T03:48:00.865Z,21.25
2019-01-22T03:50:33.492Z,21.55
2019-01-22T03:53:33.087Z,25.35
2019-01-22T03:56:35.869Z,21.82
2019-01-22T03:59:05.146Z,21.20
2019-01-22T04:01:34.504Z,24.87
2019-01-22T04:04:04.489Z,22.95
2019-01-22T04:06:33.838Z,23.80
2019-01-22T04:09:06.230Z,26.15
2019-01-22T04:11:35.758Z,24.52
2019-01-22T04:14:05.892Z,26.57
2019-01-22T04:16:35.703Z,22.80
2019-01-22T04:19:05.412Z,23.87
2019-01-22T04:21:35.332Z,23.00
2019-01-22T04:24:19.680Z,24.05
2019-01-22T04:27:16.833Z,26.17
2019-01-22T04:29:49.234Z,23.10
2019-01-22T04:32:21.710Z,22.73
2019-01-22T04:35:02.808Z,23.32
2019-01-22T04:37:37.894Z,23.60
2019-01-22T04:40:30.030Z,24.50
2019-01-22T04:43:08.475Z,24.02
2019-01-22T04:45:49.198Z,24.52
2019-01-22T04:48:36.970Z,23.02
2019-01-22T04:51:18.224Z,23.15
2019-01-22T04:54:09.394Z,23.77
2019-01-22T04:56:39.330Z,22.52
2019-01-22T04:59:20.862Z,24.00
2019-01-22T05:01:56.713Z,23.67
2019-01-22T05:04:31.838Z,22.77
2019-01-22T05:07:21.918Z,23.50
2019-01-22T05:10:00.285Z,24.32
2019-01-22T05:12:44.849Z,22.82
2019-01-22T05:15:43.317Z,22.77
2019-01-22T05:18:36.962Z,23.32
2019-01-22T05:21:29.023Z,24.20
2019-01-22T05:24:17.411Z,22.22
2019-01-22T05:27:04.778Z,21.65
2019-01-22T05:29:59.456Z,23.18
2019-01-22T05:32:53.027Z,23.10
2019-01-22T05:35:31.331Z,24.75
2019-01-22T05:38:09.943Z,21.37
2019-01-22T05:41:01.928Z,23.80
2019-01-22T05:43:51.839Z,22.90
2019-01-22T05:46:43.940Z,23.65
2019-01-22T05:49:19.663Z,22.82
2019-01-22T05:52:16.430Z,23.70
2019-01-22T05:54:48.785Z,22.55
2019-01-22T05:57:19.222Z,23.47
2019-01-22T06:00:22.403Z,23.83
2019-01-22T06:02:55.187Z,23.65
2019-01-22T06:05:53.566Z,23.90
2019-01-22T06:08:46.838Z,22.65
2019-01-22T06:11:49.342Z,23.80
2019-01-22T06:14:30.729Z,23.20
2019-01-22T06:17:03.098Z,23.27
2019-01-22T06:19:53.424Z,22.02
2019-01-22T06:22:49.939Z,22.42
2019-01-22T06:25:24.903Z,23.30
2019-01-22T06:27:57.270Z,22.90
2019-01-22T06:30:32.959Z,22.10
2019-01-22T06:33:11.463Z,23.95
2019-01-22T06:35:46.725Z,23.20
2019-01-22T06:38:33.931Z,21.93
2019-01-22T06:41:36.818Z,26.15
2019-01-22T06:45:00.244Z,22.90
2019-01-22T06:47:52.463Z,26.57
2019-01-22T06:50:49.378Z,23.42
2019-01-22T06:53:33.745Z,24.00
2019-01-22T06:56:24.743Z,22.17
2019-01-22T06:59:15.044Z,23.50
2019-01-22T07:01:56.272Z,27.17
2019-01-22T07:04:34.440Z,23.62
2019-01-22T07:07:25.256Z,24.63
2019-01-22T07:10:13.097Z,24.82
2019-01-22T07:12:51.239Z,22.15
2019-01-22T07:15:28.893Z,25.55
2019-01-22T07:18:25.411Z,25.80
2019-01-22T07:21:09.767Z,25.25
2019-01-22T07:24:03.806Z,24.92
2019-01-22T07:26:51.265Z,26.07
2019-01-22T07:29:42.974Z,23.75
2019-01-22T07:32:21.266Z,26.85
2019-01-22T07:34:59.926Z,24.65
2019-01-22T07:37:38.162Z,25.35
2019-01-22T07:40:31.704Z,25.80
2019-01-22T07:43:24.641Z,26.93
2019-01-22T07:46:15.158Z,24.07
2019-01-22T07:48:53.297Z,24.77
2019-01-22T07:51:28.262Z,24.65
2019-01-22T07:54:06.189Z,25.60
2019-01-22T07:56:44.516Z,25.05
2019-01-22T07:59:19.762Z,22.95
2019-01-22T08:02:20.774Z,22.27
2019-01-22T08:05:09.735Z,25.23
2019-01-22T08:07:55.232Z,24.55
2019-01-22T08:10:45.381Z,18.95
2019-01-22T08:13:39.823Z,23.75
2019-01-22T08:16:30.407Z,24.25
2019-01-22T08:19:05.282Z,24.00
2019-01-22T08:21:53.847Z,23.05
2019-01-22T08:24:35.182Z,19.00
2019-01-22T08:27:13.582Z,20.20
2019-01-22T08:29:54.494Z,15.45
2019-01-22T08:32:52.863Z,19.85
2019-01-22T08:35:31.021Z,20.60
2019-01-22T08:38:06.196Z,19.52
2019-01-22T08:40:55.574Z,23.05
2019-01-22T08:43:39.830Z,17.10
2019-01-22T08:46:20.807Z,20.48
2019-01-22T08:49:02.340Z,21.23
2019-01-22T08:51:55.406Z,21.40
2019-01-22T08:54:36.922Z,19.30
2019-01-22T08:57:15.247Z,20.82
2019-01-22T08:59:53.461Z,20.27
2019-01-22T09:02:34.620Z,19.77
2019-01-22T09:05:21.363Z,21.20
2019-01-22T09:08:11.787Z,20.17
2019-01-22T09:11:05.376Z,19.02
2019-01-22T09:13:49.693Z,16.55
2019-01-22T09:16:30.538Z,20.12
2019-01-22T09:19:20.922Z,21.87
2019-01-22T09:22:11.389Z,21.33
2019-01-22T09:24:49.068Z,20.75
2019-01-22T09:27:21.439Z,22.40
2019-01-22T09:29:59.879Z,17.62
2019-01-22T09:32:38.474Z,20.82
2019-01-22T09:35:26.483Z,19.42
2019-01-22T09:37:56.403Z,21.35
2019-01-22T09:40:25.710Z,21.42
2019-01-22T09:42:56.111Z,18.52
2019-01-22T09:45:25.569Z,22.52
2019-01-22T09:47:54.850Z,24.23
2019-01-22T09:50:24.142Z,19.82
2019-01-22T09:52:53.430Z,21.10
2019-01-22T09:55:24.163Z,20.65
2019-01-22T09:57:53.441Z,21.37
2019-01-22T10:00:23.108Z,22.32
2019-01-22T10:02:52.407Z,23.83
2019-01-22T10:05:21.701Z,22.85
2019-01-22T10:07:51.085Z,20.37
2019-01-22T10:10:23.222Z,22.02
2019-01-22T10:12:52.784Z,20.90
2019-01-22T10:15:22.648Z,21.25
2019-01-22T10:17:53.004Z,19.65
2019-01-22T10:20:23.849Z,17.30
2019-01-22T10:22:53.309Z,20.92
2019-01-22T10:25:29.229Z,22.00
2019-01-22T10:27:53.924Z,21.95
2019-01-22T10:30:25.440Z,22.27
2019-01-22T10:32:54.734Z,19.67
2019-01-22T10:35:24.014Z,19.25
2019-01-22T10:37:53.314Z,21.02
2019-01-22T10:40:26.725Z,19.55
2019-01-22T10:42:56.329Z,22.87
2019-01-22T10:45:25.613Z,19.77
2019-01-22T10:47:55.067Z,21.35
2019-01-22T10:50:24.351Z,20.43
2019-01-22T10:52:53.643Z,21.97
2019-01-22T10:55:22.931Z,20.65
2019-01-22T10:57:52.222Z,19.40
2019-01-22T11:00:27.538Z,22.35
2019-01-22T11:02:56.958Z,21.85
2019-01-22T11:05:32.199Z,19.23
2019-01-22T11:08:01.541Z,22.05
2019-01-22T11:10:31.896Z,22.25
2019-01-22T11:13:01.190Z,21.02
2019-01-22T11:15:30.486Z,22.25
2019-01-22T11:17:59.778Z,22.30
2019-01-22T11:20:31.371Z,20.85
2019-01-22T11:23:00.910Z,23.60
2019-01-22T11:25:33.136Z,21.87
2019-01-22T11:28:02.432Z,22.58
2019-01-22T11:30:31.887Z,21.62
2019-01-22T11:33:01.177Z,22.65
2019-01-22T11:35:30.598Z,22.45
2019-01-22T11:37:59.892Z,20.35
2019-01-22T11:40:38.310Z,18.23
2019-01-22T11:43:07.610Z,23.90
2019-01-22T11:45:37.205Z,20.92
2019-01-22T11:48:07.637Z,24.00
2019-01-22T11:50:37.253Z,21.87
2019-01-22T11:53:06.542Z,22.98
2019-01-22T11:55:35.834Z,23.05
2019-01-22T11:58:05.456Z,22.00
2019-01-22T12:00:47.148Z,22.35
2019-01-22T12:03:16.758Z,18.67
2019-01-22T12:05:46.507Z,21.70
2019-01-22T12:08:15.875Z,22.75
2019-01-22T12:10:45.165Z,22.35
2019-01-22T12:13:14.510Z,19.98
2019-01-22T12:15:44.178Z,21.05
2019-01-22T12:18:13.788Z,21.65
2019-01-22T12:20:45.178Z,20.95
2019-01-22T12:23:14.486Z,22.17
2019-01-22T12:25:44.047Z,21.85
2019-01-22T12:28:13.336Z,22.13
2019-01-22T12:30:42.622Z,22.73
2019-01-22T12:33:11.922Z,23.25
2019-01-22T12:35:41.459Z,21.75
2019-01-22T12:38:10.745Z,20.10
2019-01-22T12:40:40.025Z,20.05
2019-01-22T12:43:09.318Z,21.62
2019-01-22T12:45:38.978Z,18.98
2019-01-22T12:48:08.593Z,20.23
2019-01-22T12:50:38.323Z,22.52
2019-01-22T12:53:08.203Z,19.98
2019-01-22T12:55:37.539Z,20.32
2019-01-22T12:58:06.836Z,19.60
2019-01-22T13:00:37.446Z,22.82
2019-01-22T13:03:07.337Z,19.82
2019-01-22T13:05:48.455Z,19.00
2019-01-22T13:08:17.759Z,16.23
2019-01-22T13:10:47.098Z,16.27
2019-01-22T13:13:16.560Z,20.17
2019-01-22T13:15:46.134Z,20.43
2019-01-22T13:18:15.417Z,19.48
2019-01-22T13:20:44.883Z,18.15
2019-01-22T13:23:14.165Z,20.50
2019-01-22T13:25:43.467Z,22.10
2019-01-22T13:28:13.067Z,20.55
2019-01-22T13:30:42.363Z,20.72
2019-01-22T13:33:11.963Z,21.80
2019-01-22T13:35:41.267Z,17.05
2019-01-22T13:38:11.892Z,17.23
2019-01-22T13:40:41.174Z,17.32
2019-01-22T13:43:10.467Z,18.60
2019-01-22T13:45:40.203Z,19.82
2019-01-22T13:48:12.963Z,22.48
2019-01-22T13:50:42.260Z,21.27
2019-01-22T13:53:11.546Z,20.90
2019-01-22T13:55:40.837Z,20.50
2019-01-22T13:58:10.121Z,22.15
2019-01-22T14:00:39.421Z,20.15
2019-01-22T14:03:09.366Z,21.48
2019-01-22T14:05:38.657Z,21.80
2019-01-22T14:08:07.943Z,22.37
2019-01-22T14:10:37.247Z,21.50
2019-01-22T14:13:06.527Z,22.50
2019-01-22T14:15:40.623Z,19.25
2019-01-22T14:18:11.051Z,21.60
2019-01-22T14:20:40.659Z,20.50
2019-01-22T14:23:10.272Z,23.20
2019-01-22T14:25:39.581Z,21.45
2019-01-22T14:28:08.966Z,22.60
2019-01-22T14:30:40.264Z,23.22
2019-01-22T14:33:09.923Z,25.95
2019-01-22T14:35:39.286Z,25.97
2019-01-22T14:38:08.641Z,24.35
2019-01-22T14:40:37.960Z,23.25
2019-01-22T14:43:07.303Z,25.20
2019-01-22T14:45:36.598Z,23.30
2019-01-22T14:48:06.153Z,23.67
2019-01-22T14:50:35.447Z,24.90
2019-01-22T14:53:05.052Z,23.67
2019-01-22T14:55:34.661Z,23.55
2019-01-22T14:58:04.481Z,25.02
2019-01-22T15:00:33.778Z,24.70
2019-01-22T15:03:03.478Z,22.35
2019-01-22T15:05:33.081Z,24.27
2019-01-22T15:08:02.695Z,23.27
2019-01-22T15:10:32.614Z,23.00
2019-01-22T15:13:01.965Z,22.07
2019-01-22T15:15:31.527Z,25.90
2019-01-22T15:18:00.804Z,24.63
2019-01-22T15:20:30.117Z,22.40
2019-01-22T15:22:59.842Z,21.62
2019-01-22T15:25:29.129Z,22.10
2019-01-22T15:27:58.739Z,21.52
2019-01-22T15:30:32.880Z,24.45
2019-01-22T15:33:02.981Z,21.73
2019-01-22T15:35:32.270Z,23.10
2019-01-22T15:38:01.575Z,25.35
2019-01-22T15:40:31.635Z,23.27
2019-01-22T15:43:00.923Z,19.25
2019-01-22T15:45:30.307Z,21.97
2019-01-22T15:47:59.591Z,22.87
2019-01-22T15:50:28.886Z,24.15
2019-01-22T15:52:58.184Z,22.58
2019-01-22T15:55:30.031Z,20.77
2019-01-22T15:57:59.307Z,24.52
2019-01-22T16:00:29.340Z,25.15
2019-01-22T16:02:59.082Z,22.32
2019-01-22T16:05:28.798Z,23.90
2019-01-22T16:07:58.089Z,24.67
2019-01-22T16:10:28.471Z,22.65
2019-01-22T16:12:57.764Z,22.30
2019-01-22T16:15:27.050Z,24.65
2019-01-22T16:17:56.338Z,23.00
2019-01-22T16:20:27.066Z,23.42
2019-01-22T16:22:56.514Z,20.97
2019-01-22T16:25:26.695Z,21.50
2019-01-22T16:27:57.353Z,23.55
2019-01-22T16:30:27.342Z,24.55
2019-01-22T16:32:56.646Z,22.32
2019-01-22T16:35:26.451Z,22.13
2019-01-22T16:37:55.808Z,23.42
2019-01-22T16:40:25.336Z,22.20
2019-01-22T16:42:54.619Z,22.87
2019-01-22T16:45:32.114Z,23.40
2019-01-22T16:48:01.404Z,22.82
2019-01-22T16:50:33.004Z,22.85
2019-01-22T16:53:04.435Z,22.87
2019-01-22T16:55:36.785Z,23.42
2019-01-22T16:58:06.229Z,22.85
2019-01-22T17:00:37.378Z,23.02
2019-01-22T17:03:08.498Z,21.73
2019-01-22T17:05:38.638Z,21.77
2019-01-22T17:08:08.008Z,22.95
2019-01-22T17:10:37.709Z,20.88
2019-01-22T17:13:07.384Z,23.20
2019-01-22T17:15:36.664Z,21.77
2019-01-22T17:18:06.310Z,23.22
2019-01-22T17:20:37.448Z,19.05
2019-01-22T17:23:07.123Z,21.40
2019-01-22T17:25:36.414Z,21.50
2019-01-22T17:28:05.855Z,23.18
2019-01-22T17:30:35.141Z,21.87
2019-01-22T17:33:19.413Z,23.77
2019-01-22T17:35:49.302Z,22.20
2019-01-22T17:38:18.722Z,22.37
2019-01-22T17:40:48.022Z,21.97
2019-01-22T17:43:17.308Z,21.65
2019-01-22T17:45:46.907Z,23.73
2019-01-22T17:48:16.202Z,23.47
2019-01-22T17:50:45.506Z,23.02
2019-01-22T17:53:15.114Z,23.62
2019-01-22T17:55:44.397Z,20.90
2019-01-22T17:58:14.023Z,23.42
2019-01-22T18:00:43.631Z,19.52
2019-01-22T18:03:12.934Z,25.60
2019-01-22T18:05:42.542Z,22.42
2019-01-22T18:08:11.834Z,23.50
2019-01-22T18:10:41.504Z,24.07
2019-01-22T18:13:10.814Z,21.57
2019-01-22T18:15:40.354Z,24.43
2019-01-22T18:18:09.651Z,23.35
2019-01-22T18:20:38.965Z,22.75
2019-01-22T18:23:08.251Z,25.95
2019-01-22T18:25:37.528Z,22.77
2019-01-22T18:28:06.896Z,24.65
2019-01-22T18:30:36.181Z,22.37
2019-01-22T18:33:05.530Z,19.02
2019-01-22T18:35:38.104Z,25.48
2019-01-22T18:38:07.957Z,24.65
2019-01-22T18:40:37.235Z,23.10
2019-01-22T18:43:06.569Z,24.57
2019-01-22T18:45:36.959Z,24.82
2019-01-22T18:48:06.610Z,24.25
2019-01-22T18:50:36.408Z,24.05
2019-01-22T18:53:06.320Z,24.55
2019-01-22T18:55:37.674Z,22.87
2019-01-22T18:58:06.995Z,24.30
2019-01-22T19:00:36.579Z,21.87
2019-01-22T19:03:06.285Z,24.40
2019-01-22T19:05:35.946Z,25.35
2019-01-22T19:08:05.304Z,22.95
2019-01-22T19:10:34.927Z,20.92
2019-01-22T19:13:04.280Z,25.68
2019-01-22T19:15:34.018Z,23.30
2019-01-22T19:18:03.370Z,24.90
2019-01-22T19:20:32.675Z,23.83
2019-01-22T19:23:01.967Z,23.10
2019-01-22T19:25:31.297Z,21.05
2019-01-22T19:28:00.946Z,21.95
2019-01-22T19:30:32.019Z,22.73
2019-01-22T19:33:01.591Z,23.32
2019-01-22T19:35:30.869Z,25.15
2019-01-22T19:38:00.164Z,24.75
2019-01-22T19:40:29.445Z,25.20
2019-01-22T19:42:58.967Z,26.00
2019-01-22T19:45:30.825Z,24.90
2019-01-22T19:48:01.130Z,25.82
2019-01-22T19:50:31.413Z,24.52
2019-01-22T19:53:00.739Z,26.07
2019-01-22T19:55:30.073Z,24.98
2019-01-22T19:57:59.362Z,26.52
2019-01-22T20:00:34.344Z,21.42
2019-01-22T20:03:05.339Z,24.52
2019-01-22T20:05:35.806Z,25.10
2019-01-22T20:08:06.078Z,25.27
2019-01-22T20:10:35.447Z,27.05
2019-01-22T20:13:05.172Z,26.20
2019-01-22T20:15:34.455Z,26.20
2019-01-22T20:18:04.114Z,22.82
2019-01-22T20:20:33.488Z,24.63
2019-01-22T20:23:02.857Z,27.37
2019-01-22T20:25:32.142Z,29.60
2019-01-22T20:28:01.422Z,29.70
2019-01-22T20:30:32.950Z,27.00
2019-01-22T20:33:02.519Z,29.48
2019-01-22T20:35:31.878Z,28.75
2019-01-22T20:38:01.931Z,29.20
2019-01-22T20:40:31.205Z,28.50
2019-01-22T20:43:00.501Z,28.70
2019-01-22T20:45:30.306Z,27.65
2019-01-22T20:47:59.899Z,30.35
2019-01-22T20:50:29.186Z,25.45
2019-01-22T20:52:58.497Z,31.48
2019-01-22T20:55:27.794Z,28.55
2019-01-22T20:57:57.097Z,29.85
2019-01-22T21:00:26.447Z,30.25
2019-01-22T21:02:55.734Z,29.95
2019-01-22T21:05:30.083Z,28.70
2019-01-22T21:07:59.802Z,32.88
2019-01-22T21:10:32.341Z,29.87
2019-01-22T21:13:01.626Z,29.82
2019-01-22T21:15:31.072Z,29.50
2019-01-22T21:18:00.381Z,30.60
2019-01-22T21:20:29.673Z,30.00
2019-01-22T21:22:58.974Z,24.87
2019-01-22T21:25:28.586Z,29.40
2019-01-22T21:28:01.852Z,27.22
2019-01-22T21:30:36.354Z,30.27
2019-01-22T21:33:06.590Z,30.52
2019-01-22T21:35:35.874Z,29.37
2019-01-22T21:38:05.634Z,32.60
2019-01-22T21:40:35.244Z,33.55
2019-01-22T21:43:04.939Z,29.40
2019-01-22T21:45:34.587Z,30.82
2019-01-22T21:48:05.091Z,27.58
2019-01-22T21:50:34.389Z,31.60
2019-01-22T21:53:04.435Z,31.50
2019-01-22T21:55:34.024Z,31.33
2019-01-22T21:58:08.424Z,26.33
2019-01-22T22:00:34.460Z,33.38
2019-01-22T22:03:03.765Z,30.68
2019-01-22T22:05:33.120Z,32.60
2019-01-22T22:08:02.610Z,30.17
2019-01-22T22:10:31.965Z,34.10
2019-01-22T22:13:01.283Z,31.02
2019-01-22T22:15:30.626Z,31.68
2019-01-22T22:18:00.191Z,32.80
2019-01-22T22:20:29.802Z,32.48
2019-01-22T22:22:59.396Z,30.32
2019-01-22T22:25:29.120Z,30.37
2019-01-22T22:27:58.414Z,29.42
2019-01-22T22:30:30.287Z,32.35
2019-01-22T22:32:59.912Z,32.25
2019-01-22T22:35:29.253Z,31.95
2019-01-22T22:37:59.313Z,32.15
2019-01-22T22:40:29.234Z,31.93
2019-01-22T22:42:58.844Z,31.00
2019-01-22T22:45:28.139Z,26.80
2019-01-22T22:47:57.495Z,31.95
2019-01-22T22:50:29.547Z,31.73
2019-01-22T22:52:59.205Z,31.62
2019-01-22T22:55:28.866Z,32.30
2019-01-22T22:57:58.154Z,31.40
2019-01-22T23:00:46.355Z,32.55
2019-01-22T23:03:17.330Z,35.55
2019-01-22T23:05:50.629Z,32.67
2019-01-22T23:08:19.906Z,33.85
2019-01-22T23:10:49.211Z,34.15
2019-01-22T23:13:18.726Z,34.80
2019-01-22T23:15:48.311Z,31.90
2019-01-22T23:18:17.592Z,31.75
2019-01-22T23:20:46.889Z,34.33
2019-01-22T23:23:16.165Z,34.88
2019-01-22T23:25:45.453Z,32.42
2019-01-22T23:28:14.734Z,34.05
2019-01-22T23:30:44.318Z,32.90
2019-01-22T23:33:13.609Z,34.75
2019-01-22T23:35:42.900Z,33.33
2019-01-22T23:38:12.521Z,34.50
2019-01-22T23:40:41.809Z,34.40
2019-01-22T23:43:11.091Z,34.13
2019-01-22T23:45:40.385Z,35.05
2019-01-22T23:48:09.675Z,33.20
2019-01-22T23:50:39.042Z,32.98
2019-01-22T23:53:08.342Z,37.45
2019-01-22T23:55:37.931Z,33.90
2019-01-22T23:58:07.216Z,34.10
